Time;durP1;ratioP1;P1;durP2;ratioP2;P2;SDS_P1;SDS_P2;PMS_P1;PMS_P2;Temp;Humidity;BMP_temperature;BMP_pressure;BME280_temperature;BME280_humidity;BME280_pressure;Samples;Min_cycle;Max_cycle;Signal;HPM_P1;HPM_P2
2023/08/07 00:00:57;;;;;;;;;;;14.30;98.30;;;14.57;64.26;98526.19;4982378;28;114299;-84
2023/08/07 00:03:26;;;;;;;;;;;14.30;98.20;;;14.58;64.03;98527.81;4985579;28;112999;-86
2023/08/07 00:05:55;;;;;;;;;;;14.30;98.20;;;14.58;63.88;98527.00;4969732;28;123172;-85
2023/08/07 00:08:28;;;;;;;;;;;14.30;98.10;;;14.57;63.70;98534.53;4972320;28;123371;-85
2023/08/07 00:11:06;;;;;;;;;;;14.30;98.00;;;14.54;63.64;98534.44;4973876;28;114440;-86
2023/08/07 00:13:40;;;;;;;;;;;14.30;98.00;;;14.54;63.71;98528.88;4985217;28;114040;-87
2023/08/07 00:16:07;;;;;;;;;;;14.30;98.00;;;14.55;63.56;98545.19;4988397;28;124559;-83
2023/08/07 00:18:33;;;;;;;;;;;14.30;97.90;;;14.56;63.58;98540.44;4988417;28;123463;-84
2023/08/07 00:21:02;;;;;;;;;;;14.30;97.80;;;14.56;63.23;98541.25;4992675;28;114804;-84
2023/08/07 00:23:29;;;;;;;;;;;14.30;97.80;;;14.54;63.22;98540.78;4974751;28;113632;-84
2023/08/07 00:25:57;;;;;;;;;;;14.30;97.70;;;14.56;63.42;98530.16;4963932;28;123247;-86
2023/08/07 00:28:28;;;;;;;;;;;14.30;97.70;;;14.59;63.10;98545.31;4988206;28;124735;-85
2023/08/07 00:30:54;;;;;;;;;;;14.30;97.70;;;14.59;63.13;98545.31;4984986;28;114907;-82
2023/08/07 00:33:20;;;;;;;;;;;14.30;97.60;;;14.61;62.88;98548.53;4978886;28;114644;-86
2023/08/07 00:35:52;;;;;;;;;;;14.30;97.50;;;14.61;62.59;98547.75;4971457;28;123198;-84
2023/08/07 00:38:20;;;;;;;;;;;14.30;97.40;;;14.58;62.38;98555.59;4980274;28;123016;-85
2023/08/07 00:40:52;;;;;;;;;;;14.30;97.30;;;14.56;62.27;98560.72;4981897;28;114950;-83
2023/08/07 00:43:18;;;;;;;;;;;14.30;97.20;;;14.56;62.57;98552.38;4988076;28;113748;-83
2023/08/07 00:45:51;;;;;;;;;;;14.30;97.30;;;14.58;62.51;98566.72;4974478;28;124717;-83
2023/08/07 00:48:18;;;;;;;;;;;14.30;97.30;;;14.60;62.63;98560.84;4974620;28;123668;-86
2023/08/07 00:50:46;;;;;;;;;;;14.30;97.30;;;14.60;62.13;98568.38;4981680;28;114057;-84
2023/08/07 00:53:15;;;;;;;;;;;14.30;97.20;;;14.60;61.99;98562.81;4985789;28;113606;-82
2023/08/07 00:55:51;;;;;;;;;;;14.30;97.10;;;14.62;62.17;98566.06;4981253;28;124208;-83
2023/08/07 00:58:18;;;;;;;;;;;14.30;97.10;;;14.63;62.07;98559.34;4978048;28;123909;-84
2023/08/07 01:00:54;;;;;;;;;;;14.30;97.00;;;14.65;61.50;98571.75;4978806;28;113533;-89
2023/08/07 01:03:28;;;;;;;;;;;14.40;97.00;;;14.66;61.54;98565.00;4993515;28;113447;-84
2023/08/07 01:05:54;;;;;;;;;;;14.40;96.80;;;14.65;61.43;98566.19;4983541;28;124523;-83
2023/08/07 01:08:21;;;;;;;;;;;14.40;96.80;;;14.66;61.64;98564.22;4986154;28;124010;-86
2023/08/07 01:11:08;;;;;;;;;;;14.40;96.80;;;14.66;61.62;98584.47;4984947;28;114320;-86
2023/08/07 01:14:03;;;;;;;;;;;14.40;96.90;;;14.67;61.69;98566.66;4974537;28;112969;-85
2023/08/07 01:16:44;;;;;;;;;;;14.40;96.90;;;14.68;61.75;98570.25;4983036;28;123732;-86
2023/08/07 01:19:28;;;;;;;;;;;14.40;96.90;;;14.68;61.79;98573.03;4982901;28;124846;-84
2023/08/07 01:22:19;;;;;;;;;;;14.40;96.80;;;14.68;61.24;98565.47;4978584;28;115783;-87
2023/08/07 01:24:52;;;;;;;;;;;14.40;97.00;;;14.69;61.43;98572.66;4973209;28;114694;-84
2023/08/07 01:27:20;;;;;;;;;;;14.40;96.70;;;14.69;61.18;98571.84;4970096;28;123520;-85
2023/08/07 01:30:03;;;;;;;;;;;14.40;96.60;;;14.67;60.68;98579.72;4992507;28;122784;-85
2023/08/07 01:32:51;;;;;;;;;;;14.40;96.40;;;14.64;60.85;98591.53;4986492;28;114980;-82
2023/08/07 01:35:29;;;;;;;;;;;14.40;96.30;;;14.65;60.78;98573.72;4983911;28;113230;-86
2023/08/07 01:38:04;;;;;;;;;;;14.40;96.30;;;14.64;60.45;98570.13;4985590;28;124481;-83
2023/08/07 01:40:30;;;;;;;;;;;14.40;96.20;;;14.62;60.33;98572.44;4990524;28;123546;-85
2023/08/07 01:42:57;;;;;;;;;;;14.40;96.10;;;14.62;59.99;98578.00;4986839;28;114328;-85
2023/08/07 01:45:28;;;;;;;;;;;14.30;95.90;;;14.63;59.90;98568.47;4988498;28;114077;-86
2023/08/07 01:47:55;;;;;;;;;;;14.30;95.90;;;14.63;60.30;98560.16;4987686;28;122259;-86
2023/08/07 01:50:22;;;;;;;;;;;14.30;96.00;;;14.62;59.95;98561.31;4976631;28;122054;-83
2023/08/07 01:52:54;;;;;;;;;;;14.30;95.80;;;14.61;59.80;98554.09;4983219;28;114186;-85
2023/08/07 01:55:22;;;;;;;;;;;14.30;95.80;;;14.62;59.95;98579.97;4982246;28;113609;-82
2023/08/07 01:57:51;;;;;;;;;;;14.30;95.80;;;14.63;60.11;98578.81;4966483;28;124397;-83
2023/08/07 02:00:18;;;;;;;;;;;14.30;95.80;;;14.62;59.92;98583.56;4981680;28;124078;-85
2023/08/07 02:02:49;;;;;;;;;;;14.40;95.80;;;14.63;59.75;98595.47;4981554;28;113443;-85
2023/08/07 02:05:16;;;;;;;;;;;14.30;95.60;;;14.64;59.16;98583.19;4983928;28;113037;-84
2023/08/07 02:07:44;;;;;;;;;;;14.30;95.50;;;14.63;59.16;98584.38;4990954;28;124966;-84
2023/08/07 02:10:10;;;;;;;;;;;14.30;95.40;;;14.62;59.37;98571.63;4976368;28;124089;-87
2023/08/07 02:12:42;;;;;;;;;;;14.30;95.50;;;14.61;59.33;98584.69;4997795;28;115272;-87
2023/08/07 02:15:09;;;;;;;;;;;16.90;96.50;;;14.63;59.36;98578.81;4978986;28;114744;-88
2023/08/07 02:17:43;;;;;;;;;;;14.30;95.30;;;14.65;59.24;98582.06;4992704;28;124765;-86
2023/08/07 02:20:10;;;;;;;;;;;14.40;95.40;;;14.67;58.82;98591.69;5002244;28;122714;-85
2023/08/07 02:22:39;;;;;;;;;;;14.40;95.20;;;14.65;58.79;98599.53;4982242;28;114164;-85
2023/08/07 02:25:06;;;;;;;;;;;14.40;95.20;;;14.66;58.97;98605.91;4975191;28;113483;-85
2023/08/07 02:27:32;;;;;;;;;;;14.40;95.10;;;14.66;58.82;98606.72;4987478;28;124353;-86
2023/08/07 02:29:58;;;;;;;;;;;14.40;95.10;;;14.66;58.81;98590.03;5000939;28;123779;-84
2023/08/07 02:32:29;;;;;;;;;;;14.40;95.10;;;14.67;58.80;98607.53;4978103;28;114486;-85
2023/08/07 02:34:58;;;;;;;;;;;14.40;95.10;;;14.68;58.62;98609.16;5007866;28;113480;-87
2023/08/07 02:37:27;;;;;;;;;;;14.40;95.00;;;14.68;58.70;98603.59;4981404;28;123932;-85
2023/08/07 02:39:53;;;;;;;;;;;14.40;95.00;;;14.66;58.52;98589.22;4976474;28;125613;-85
2023/08/07 02:42:20;;;;;;;;;;;14.40;95.00;;;14.65;58.47;98594.00;4991553;28;113947;-85
2023/08/07 02:44:46;;;;;;;;;;;14.40;94.90;;;14.64;58.00;98591.53;4990501;28;113878;-85
2023/08/07 02:47:15;;;;;;;;;;;14.40;94.70;;;14.61;58.06;98604.16;4994711;28;124206;-87
2023/08/07 02:49:44;;;;;;;;;;;14.40;94.70;;;14.61;57.91;98597.78;4989668;28;123422;-86
2023/08/07 02:52:10;;;;;;;;;;;14.30;94.50;;;14.58;57.52;98591.75;5001817;28;114863;-87
2023/08/07 02:54:39;;;;;;;;;;;14.30;94.30;;;14.56;57.28;98591.31;4995976;28;113617;-86
2023/08/07 02:57:08;;;;;;;;;;;14.30;94.20;;;14.56;57.43;98601.59;4994038;28;124761;-88
2023/08/07 02:59:34;;;;;;;;;;;14.30;94.30;;;14.56;57.70;98601.59;4988211;28;124072;-85
2023/08/07 03:02:04;;;;;;;;;;;14.30;94.20;;;14.54;57.15;98604.72;4986710;28;115403;-86
2023/08/07 03:04:30;;;;;;;;;;;14.30;94.00;;;14.49;57.19;98607.69;4992751;28;114875;-86
2023/08/07 03:06:56;;;;;;;;;;;14.30;94.00;;;14.50;57.22;98598.19;4980546;28;123544;-83
2023/08/07 03:09:28;;;;;;;;;;;14.30;94.00;;;14.48;57.00;98597.75;5000144;28;124487;-84
2023/08/07 03:11:54;;;;;;;;;;;14.30;94.00;;;14.46;57.23;98607.59;4989372;28;114490;-81
2023/08/07 03:14:20;;;;;;;;;;;14.20;93.90;;;14.44;57.07;98605.13;4975262;28;113587;-83
2023/08/07 03:16:46;;;;;;;;;;;14.20;93.90;;;14.43;57.10;98613.84;4991023;28;124380;-85
2023/08/07 03:19:16;;;;;;;;;;;14.20;93.90;;;14.43;57.11;98614.63;4969633;28;123185;-82
2023/08/07 03:21:42;;;;;;;;;;;14.20;93.90;;;14.41;56.93;98611.38;4974594;28;114915;-83
2023/08/07 03:24:11;;;;;;;;;;;14.20;93.80;;;14.41;57.18;98616.94;4974371;28;113748;-82
2023/08/07 03:26:41;;;;;;;;;;;14.20;93.90;;;14.37;57.02;98613.22;4990038;28;123164;-83
2023/08/07 03:29:07;;;;;;;;;;;14.10;93.80;;;14.39;57.18;98622.03;4986404;28;123935;-84
2023/08/07 03:31:34;;;;;;;;;;;14.20;93.80;;;14.36;57.16;98611.59;4978710;28;114817;-84
2023/08/07 03:34:00;;;;;;;;;;;14.10;93.80;;;14.35;57.31;98605.22;4989871;28;113643;-83
2023/08/07 03:36:28;;;;;;;;;;;14.10;93.90;;;14.35;57.26;98607.19;4976075;28;124327;-81
2023/08/07 03:38:54;;;;;;;;;;;14.10;94.00;;;14.34;57.63;98598.03;4989651;28;123869;-83
2023/08/07 03:41:24;;;;;;;;;;;14.10;94.00;;;14.36;57.46;98608.81;4990397;28;113662;-81
2023/08/07 03:43:52;;;;;;;;;;;14.10;94.10;;;14.30;57.59;98596.28;4973198;28;113782;-86
2023/08/07 03:46:19;;;;;;;;;;;14.00;94.10;;;14.29;57.96;98600.22;4970631;28;123322;-84
2023/08/07 03:48:45;;;;;;;;;;;14.00;94.20;;;14.30;57.97;98610.19;4980707;28;124243;-84
2023/08/07 03:51:11;;;;;;;;;;;14.00;94.20;;;14.30;57.90;98605.44;4979935;28;115624;-81
2023/08/07 03:53:45;;;;;;;;;;;14.00;94.20;;;14.32;57.68;98619.81;4974630;28;97168;-83
2023/08/07 03:56:11;;;;;;;;;;;14.00;94.30;;;14.30;57.88;98611.00;4990256;28;124436;-82
2023/08/07 03:58:38;;;;;;;;;;;14.00;94.30;;;14.28;58.00;98604.97;4988199;28;123306;-82
2023/08/07 04:01:07;;;;;;;;;;;14.00;94.30;;;14.30;57.86;98612.97;4968997;28;113830;-81
2023/08/07 04:03:37;;;;;;;;;;;14.00;94.30;;;14.29;57.96;98612.16;4980003;28;113465;-83
2023/08/07 04:06:07;;;;;;;;;;;14.00;94.30;;;14.29;57.96;98620.50;4969820;28;124790;-85
2023/08/07 04:08:34;;;;;;;;;;;14.00;94.30;;;14.27;57.83;98622.81;4982170;28;123056;-80
2023/08/07 04:11:12;;;;;;;;;;;14.00;94.30;;;14.27;57.71;98610.88;4978323;28;114190;-83
2023/08/07 04:13:42;;;;;;;;;;;14.00;94.30;;;14.25;57.84;98602.88;4988780;28;112720;-82
2023/08/07 04:16:08;;;;;;;;;;;14.00;94.30;;;14.25;58.07;98605.66;4981112;28;122985;-82
2023/08/07 04:18:34;;;;;;;;;;;14.00;94.40;;;14.25;58.04;98613.97;4986530;28;124644;-83
2023/08/07 04:21:00;;;;;;;;;;;14.00;94.30;;;14.26;57.95;98612.00;4982021;28;114379;-84
2023/08/07 04:23:31;;;;;;;;;;;14.00;94.30;;;14.28;58.05;98618.06;4975033;28;113607;-83
2023/08/07 04:25:59;;;;;;;;;;;14.00;94.30;;;14.28;57.88;98629.97;4978404;28;123663;-84
2023/08/07 04:28:32;;;;;;;;;;;14.00;94.30;;;14.29;58.05;98619.66;4987896;28;123815;-83
2023/08/07 04:30:58;;;;;;;;;;;14.00;94.30;;;14.28;57.92;98623.59;4974451;28;112491;-85
2023/08/07 04:33:24;;;;;;;;;;;14.00;94.30;;;14.27;57.99;98630.34;4974875;28;113855;-83
2023/08/07 04:35:55;;;;;;;;;;;14.00;94.40;;;14.29;58.09;98631.63;4979245;28;123937;-86
2023/08/07 04:38:25;;;;;;;;;;;14.00;94.40;;;14.31;58.15;98625.69;4987706;28;123843;-82
2023/08/07 04:40:53;;;;;;;;;;;14.00;94.40;;;14.32;58.00;98632.91;4966724;28;115379;-84
2023/08/07 04:43:20;;;;;;;;;;;14.00;94.40;;;14.33;57.86;98646.44;4988998;28;114665;-87
2023/08/07 04:45:49;;;;;;;;;;;14.00;94.30;;;14.32;57.87;98630.94;4986842;28;124827;-86
2023/08/07 04:48:20;;;;;;;;;;;14.10;94.30;;;14.35;57.49;98640.56;4995008;28;121952;-85
2023/08/07 04:50:46;;;;;;;;;;;14.10;94.20;;;14.35;57.79;98646.13;4974734;28;114657;-86
2023/08/07 04:53:13;;;;;;;;;;;14.10;94.20;;;14.36;57.65;98647.72;4986867;28;113838;-86
2023/08/07 04:55:42;;;;;;;;;;;14.10;94.10;;;14.38;57.55;98644.63;4987537;28;124059;-86
2023/08/07 04:58:08;;;;;;;;;;;14.10;94.10;;;14.39;57.63;98638.69;4998059;28;121792;-87
2023/08/07 05:00:36;;;;;;;;;;;14.50;94.30;;;14.41;57.60;98644.75;4974489;28;114451;-86
2023/08/07 05:03:11;;;;;;;;;;;14.10;94.10;;;14.45;57.46;98645.66;4971324;28;113755;-85
2023/08/07 05:05:42;;;;;;;;;;;14.10;94.10;;;14.48;57.43;98650.56;4968091;28;123974;-84
2023/08/07 05:08:08;;;;;;;;;;;14.20;94.10;;;14.50;57.51;98644.66;5004811;28;122756;-83
2023/08/07 05:10:41;;;;;;;;;;;14.20;94.10;;;14.51;57.42;98649.06;4978092;28;115245;-83
2023/08/07 05:13:10;;;;;;;;;;;14.20;94.10;;;14.53;57.27;98644.81;4982894;28;114722;-86
2023/08/07 05:15:36;;;;;;;;;;;14.20;94.00;;;14.55;57.18;98639.72;4977732;28;124155;-86
2023/08/07 05:18:06;;;;;;;;;;;14.20;94.00;;;14.58;57.10;98643.78;4991673;28;124687;-83
2023/08/07 05:20:37;;;;;;;;;;;14.30;94.00;;;14.57;57.35;98648.53;5001382;28;114530;-84
2023/08/07 05:23:08;;;;;;;;;;;14.30;94.00;;;14.61;57.13;98642.28;5007165;28;113512;-84
2023/08/07 05:25:35;;;;;;;;;;;14.30;94.00;;;14.63;57.29;98653.88;4980000;28;124126;-86
2023/08/07 05:28:01;;;;;;;;;;;14.30;94.00;;;14.63;57.32;98642.75;4986864;28;123866;-85
2023/08/07 05:30:32;;;;;;;;;;;14.30;94.00;;;14.66;57.35;98650.41;4987390;28;114396;-85
2023/08/07 05:33:01;;;;;;;;;;;14.40;94.00;;;14.68;57.16;98648.09;4983567;28;114691;-85
2023/08/07 05:35:31;;;;;;;;;;;14.40;94.00;;;14.69;56.97;98655.28;4991740;28;124549;-87
2023/08/07 05:37:58;;;;;;;;;;;14.40;94.00;;;14.71;57.28;98659.34;4999745;28;123262;-87
2023/08/07 05:40:29;;;;;;;;;;;14.40;94.00;;;14.74;57.18;98672.56;4995523;28;114156;-86
2023/08/07 05:42:55;;;;;;;;;;;14.40;93.90;;;14.79;56.88;98666.78;4978379;28;113733;-86
2023/08/07 05:45:22;;;;;;;;;;;14.50;93.90;;;14.82;56.88;98667.25;4986852;28;124126;-86
2023/08/07 05:47:53;;;;;;;;;;;14.50;93.90;;;14.85;56.82;98672.94;5004886;28;123807;-87
2023/08/07 05:50:20;;;;;;;;;;;14.50;93.90;;;14.86;56.60;98671.78;4985069;28;115265;-86
2023/08/07 05:52:46;;;;;;;;;;;14.60;93.80;;;14.90;56.44;98678.28;4969067;28;113676;-83
2023/08/07 05:55:12;;;;;;;;;;;14.60;93.70;;;14.93;56.26;98672.03;4991087;28;124673;-81
2023/08/07 05:57:41;;;;;;;;;;;14.60;93.70;;;14.96;56.27;98685.28;4995071;28;123961;-85
2023/08/07 06:00:13;;;;;;;;;;;14.60;93.60;;;15.00;56.17;98683.41;5002449;28;114721;-86
2023/08/07 06:02:41;;;;;;;;;;;14.60;93.60;;;15.02;56.48;98683.88;4978855;28;113273;-85
2023/08/07 06:05:09;;;;;;;;;;;14.70;93.60;;;15.08;55.94;98678.09;4985570;28;124630;-87
2023/08/07 06:07:43;;;;;;;;;;;14.70;93.60;;;15.12;56.06;98684.59;4977108;28;123725;-86
2023/08/07 06:10:11;;;;;;;;;;;14.80;93.50;;;15.16;55.81;98696.66;4974741;28;114427;-85
2023/08/07 06:12:41;;;;;;;;;;;14.80;93.50;;;15.17;55.68;98685.16;4980778;28;113346;-84
2023/08/07 06:15:08;;;;;;;;;;;14.80;93.40;;;15.19;55.55;98687.63;4988557;28;123962;-86
2023/08/07 06:17:35;;;;;;;;;;;14.80;93.30;;;15.22;55.73;98712.78;4975781;28;123118;-86
2023/08/07 06:20:11;;;;;;;;;;;14.90;93.40;;;15.27;55.28;98708.97;4983900;28;115313;-85
2023/08/07 06:22:41;;;;;;;;;;;14.90;93.30;;;15.28;55.25;98710.56;4984763;28;113849;-83
2023/08/07 06:25:10;;;;;;;;;;;14.90;93.20;;;15.32;55.35;98724.63;4977006;28;124236;-85
2023/08/07 06:27:36;;;;;;;;;;;14.90;93.20;;;15.32;55.56;98711.53;4975418;28;123674;-87
2023/08/07 06:30:06;;;;;;;;;;;14.90;93.20;;;15.36;55.53;98718.00;4993465;28;114572;-86
2023/08/07 06:32:32;;;;;;;;;;;15.00;93.30;;;15.37;55.42;98711.31;4980390;28;112936;-85
2023/08/07 06:35:06;;;;;;;;;;;15.00;93.30;;;15.40;55.38;98718.97;4975305;28;124826;-86
2023/08/07 06:37:32;;;;;;;;;;;15.00;93.30;;;15.41;55.59;98717.78;4985660;28;124311;-86
2023/08/07 06:40:05;;;;;;;;;;;15.00;93.30;;;15.43;55.52;98718.25;4979279;28;113463;-87
2023/08/07 06:42:31;;;;;;;;;;;15.10;93.40;;;15.46;55.57;98722.31;4981720;28;115256;-86
2023/08/07 06:44:57;;;;;;;;;;;15.10;93.30;;;15.48;55.65;98697.75;4981879;28;126183;-88
2023/08/07 06:47:27;;;;;;;;;;;15.10;93.30;;;15.52;55.10;98714.56;4991838;28;124290;-85
2023/08/07 06:49:53;;;;;;;;;;;15.20;93.20;;;15.54;54.66;98703.88;4979639;28;114468;-85
2023/08/07 06:52:19;;;;;;;;;;;15.20;92.90;;;15.54;55.09;98717.81;4988526;28;113588;-83
2023/08/07 06:54:46;;;;;;;;;;;15.20;93.00;;;15.56;55.12;98713.50;4969034;28;124419;-84
2023/08/07 06:57:14;;;;;;;;;;;15.20;92.90;;;15.62;54.85;98716.88;4983214;28;123887;-79
2023/08/07 06:59:41;;;;;;;;;;;15.30;92.90;;;15.65;54.19;98718.97;4989262;28;114281;-85
2023/08/07 07:02:09;;;;;;;;;;;15.30;92.70;;;15.66;54.19;98737.28;4978972;28;113020;-84
2023/08/07 07:04:36;;;;;;;;;;;15.30;92.70;;;15.68;53.94;98721.88;4974256;28;124067;-85
2023/08/07 07:07:03;;;;;;;;;;;15.30;92.50;;;15.74;54.00;98721.66;4970295;28;124603;-84
2023/08/07 07:09:29;;;;;;;;;;;15.40;92.50;;;15.81;53.44;98727.47;4981885;28;115781;-86
2023/08/07 07:11:56;;;;;;;;;;;15.40;92.10;;;15.91;52.68;98715.84;4976384;28;114647;-84
2023/08/07 07:14:26;;;;;;;;;;;15.50;92.00;;;15.95;52.17;98766.91;4979358;28;124273;-83
2023/08/07 07:16:52;;;;;;;;;;;15.50;91.50;;;15.95;51.52;98718.75;4980984;28;124260;-81
2023/08/07 07:19:26;;;;;;;;;;;15.50;91.20;;;15.94;51.77;98725.50;4976153;28;113680;-80
2023/08/07 07:21:53;;;;;;;;;;;15.60;91.20;;;15.96;51.90;98737.91;4971576;28;113936;-79
2023/08/07 07:24:19;;;;;;;;;;;15.60;91.20;;;16.00;51.74;98729.66;4989491;28;124583;-82
2023/08/07 07:26:45;;;;;;;;;;;15.70;91.20;;;16.06;51.96;98733.81;4990260;28;124726;-82
2023/08/07 07:29:16;;;;;;;;;;;15.70;91.30;;;16.15;51.90;98733.69;4983544;28;113611;-80
2023/08/07 07:31:46;;;;;;;;;;;15.80;91.20;;;16.18;51.55;98744.97;4975571;28;113936;-81
2023/08/07 07:34:16;;;;;;;;;;;15.80;91.10;;;16.18;51.51;98747.75;4982452;28;124603;-80
2023/08/07 07:36:42;;;;;;;;;;;15.80;91.00;;;16.20;51.56;98751.00;4982179;28;124215;-83
2023/08/07 07:39:10;;;;;;;;;;;15.90;91.10;;;16.22;51.55;98754.22;4990109;28;113373;-82
2023/08/07 07:41:39;;;;;;;;;;;15.90;91.00;;;16.26;51.78;98749.59;4999692;28;113699;-82
2023/08/07 07:44:05;;;;;;;;;;;15.90;91.10;;;16.29;51.66;98750.88;4986929;28;124764;-79
2023/08/07 07:46:34;;;;;;;;;;;15.90;91.10;;;16.30;51.45;98749.69;4982212;28;125323;-81
2023/08/07 07:49:04;;;;;;;;;;;15.90;91.00;;;16.30;51.68;98749.69;4995346;28;113927;-79
2023/08/07 07:51:35;;;;;;;;;;;15.90;91.10;;;16.32;51.90;98742.59;4995482;28;113781;-82
2023/08/07 07:54:04;;;;;;;;;;;15.90;91.10;;;16.38;51.81;98742.34;4979607;28;124206;-80
2023/08/07 07:56:33;;;;;;;;;;;16.00;91.20;;;16.43;51.71;98750.47;4987729;28;123572;-85
2023/08/07 07:58:59;;;;;;;;;;;16.00;91.20;;;16.48;51.15;98751.03;4982548;28;113949;-82
2023/08/07 08:01:28;;;;;;;;;;;16.10;90.80;;;16.52;51.00;98751.13;4987216;28;113789;-81
2023/08/07 08:03:54;;;;;;;;;;;16.10;90.70;;;16.57;50.83;98753.69;4984811;28;124103;-83
2023/08/07 08:06:21;;;;;;;;;;;16.20;90.60;;;16.61;49.73;98742.66;4987603;28;123854;-85
2023/08/07 08:08:47;;;;;;;;;;;16.20;89.90;;;16.62;49.81;98759.00;4975686;28;113772;-80
2023/08/07 08:11:16;;;;;;;;;;;16.20;89.90;;;16.64;49.25;98756.69;4985612;28;114147;-80
2023/08/07 08:13:43;;;;;;;;;;;16.30;89.30;;;16.68;48.50;98771.53;4975359;28;124349;-81
2023/08/07 08:16:09;;;;;;;;;;;16.30;88.40;;;16.67;48.54;98763.53;4982942;28;123984;-85
2023/08/07 08:18:35;;;;;;;;;;;16.30;88.10;;;16.64;48.67;98762.28;4983653;28;113830;-85
2023/08/07 08:21:06;;;;;;;;;;;16.30;87.90;;;16.65;48.56;98771.44;4995484;28;113976;-78
2023/08/07 08:23:32;;;;;;;;;;;16.30;87.70;;;16.63;48.48;98784.94;4978954;28;124269;-80
2023/08/07 08:25:59;;;;;;;;;;;16.30;87.60;;;16.61;48.57;98782.50;4984622;28;123553;-81
2023/08/07 08:28:31;;;;;;;;;;;16.30;87.80;;;16.61;48.55;98778.91;4980259;28;114418;-79
2023/08/07 08:30:57;;;;;;;;;;;16.30;87.80;;;16.64;48.64;98765.06;4983357;28;113550;-84
2023/08/07 08:33:24;;;;;;;;;;;16.30;87.50;;;16.65;48.25;98777.84;4982050;28;124635;-84
2023/08/07 08:35:50;;;;;;;;;;;16.30;87.20;;;16.69;48.61;98777.97;4989475;28;123238;-85
2023/08/07 08:38:29;;;;;;;;;;;16.40;87.70;;;16.75;48.21;98765.38;4981944;28;114751;-85
2023/08/07 08:41:02;;;;;;;;;;;16.40;87.30;;;16.81;47.66;98768.75;4994228;28;113209;-85
2023/08/07 08:43:34;;;;;;;;;;;16.50;86.90;;;16.85;47.25;98767.69;4992927;28;124397;-84
2023/08/07 08:46:01;;;;;;;;;;;16.50;86.00;;;16.90;46.79;98761.03;5000275;28;123951;-80
2023/08/07 08:48:33;;;;;;;;;;;16.50;86.30;;;16.99;46.29;98764.50;4994906;28;114224;-78
2023/08/07 08:50:59;;;;;;;;;;;16.50;84.70;;;17.12;45.41;98766.06;4978499;28;115208;-83
2023/08/07 08:53:25;;;;;;;;;;;16.60;83.90;;;17.23;45.21;98788.69;4996452;28;124229;-82
2023/08/07 08:55:52;;;;;;;;;;;16.70;83.50;;;17.31;45.26;98767.34;4965621;28;123960;-81
2023/08/07 08:58:23;;;;;;;;;;;16.80;83.60;;;17.41;44.99;98792.78;4990365;28;114590;-79
2023/08/07 09:00:59;;;;;;;;;;;16.90;83.00;;;17.50;44.44;98791.78;4967218;28;113744;-78
2023/08/07 09:03:26;;;;;;;;;;;17.00;82.50;;;17.56;44.31;98777.19;4978199;28;124357;-77
2023/08/07 09:05:58;;;;;;;;;;;17.10;82.20;;;17.65;44.41;98775.03;4991304;28;122983;-79
2023/08/07 09:08:26;;;;;;;;;;;17.20;82.10;;;17.76;44.11;98780.06;4983738;28;114607;-78
2023/08/07 09:10:59;;;;;;;;;;;17.30;82.00;;;17.84;44.09;98776.34;4966986;28;113896;-79
2023/08/07 09:13:35;;;;;;;;;;;17.30;81.40;;;17.87;43.99;98778.41;4992779;28;124914;-81
2023/08/07 09:16:01;;;;;;;;;;;17.40;81.50;;;17.91;43.97;98793.25;4989207;28;123870;-79
2023/08/07 09:18:27;;;;;;;;;;;17.40;81.20;;;17.95;43.74;98783.00;4981130;28;114570;-79
2023/08/07 09:21:00;;;;;;;;;;;17.50;80.70;;;18.02;43.46;98785.13;4984217;28;113823;-82
2023/08/07 09:23:26;;;;;;;;;;;17.60;80.90;;;18.05;43.76;98788.03;4996247;28;123976;-82
2023/08/07 09:26:05;;;;;;;;;;;17.60;80.90;;;18.11;43.78;98785.78;4980411;28;123690;-77
2023/08/07 09:28:33;;;;;;;;;;;17.70;81.00;;;18.16;43.73;98790.25;4993674;28;113964;-78
2023/08/07 09:31:01;;;;;;;;;;;17.80;80.80;;;18.16;43.69;98799.47;4981787;28;113924;-82
2023/08/07 09:33:36;;;;;;;;;;;17.70;80.70;;;18.16;43.57;98804.22;4972787;28;124425;-82
2023/08/07 09:36:02;;;;;;;;;;;17.80;80.70;;;18.16;43.74;98802.28;4990339;28;124340;-80
2023/08/07 09:38:31;;;;;;;;;;;17.70;80.50;;;18.14;42.71;98799.03;4976150;28;115051;-84
2023/08/07 09:40:59;;;;;;;;;;;17.70;78.80;;;18.09;42.31;98794.50;4993199;28;114361;-79
2023/08/07 09:43:25;;;;;;;;;;;17.70;77.90;;;18.11;42.38;98808.13;4990758;28;124277;-80
2023/08/07 09:45:51;;;;;;;;;;;17.70;78.30;;;18.16;42.73;98821.84;4980037;28;124807;-80
2023/08/07 09:48:25;;;;;;;;;;;17.70;78.70;;;18.21;42.84;98807.56;4989536;28;114274;-80
2023/08/07 09:50:51;;;;;;;;;;;17.80;79.00;;;18.26;42.62;98814.88;4987041;28;113732;-78
2023/08/07 09:53:26;;;;;;;;;;;17.80;78.50;;;18.28;42.74;98812.53;4990201;28;124220;-78
2023/08/07 09:55:59;;;;;;;;;;;17.90;78.60;;;18.32;42.79;98822.63;4985786;28;124045;-80
2023/08/07 09:58:28;;;;;;;;;;;17.90;78.80;;;18.36;42.64;98825.50;4975433;28;113578;-79
2023/08/07 10:01:03;;;;;;;;;;;17.90;78.50;;;18.35;41.34;98814.66;4989797;28;113640;-79
2023/08/07 10:03:38;;;;;;;;;;;17.90;77.00;;;18.36;42.30;98807.91;4987786;28;124214;-80
2023/08/07 10:06:12;;;;;;;;;;;17.90;77.90;;;18.38;42.45;98817.56;4986332;28;124132;-78
2023/08/07 10:08:39;;;;;;;;;;;18.00;78.00;;;18.45;42.36;98819.72;4985614;28;114570;-79
2023/08/07 10:11:10;;;;;;;;;;;18.10;78.00;;;18.48;42.39;98827.38;4988021;28;114293;-80
2023/08/07 10:13:37;;;;;;;;;;;18.10;77.90;;;18.51;42.02;98804.25;4985984;28;124930;-79
2023/08/07 10:16:04;;;;;;;;;;;18.40;77.80;;;18.46;41.57;98805.38;4973114;28;123013;-80
2023/08/07 10:18:41;;;;;;;;;;;18.10;76.60;;;18.52;41.62;98803.91;4989439;28;114623;-79
2023/08/07 10:21:14;;;;;;;;;;;18.20;76.80;;;18.57;41.71;98816.00;4992406;28;113748;-80
2023/08/07 10:23:41;;;;;;;;;;;18.20;76.90;;;18.62;41.21;98812.88;4990232;28;124570;-79
2023/08/07 10:26:11;;;;;;;;;;;18.20;76.30;;;18.63;41.21;98820.13;4991497;28;124121;-79
2023/08/07 10:28:39;;;;;;;;;;;18.30;76.00;;;18.67;41.25;98821.00;4975563;28;114124;-80
2023/08/07 10:31:12;;;;;;;;;;;18.30;75.70;;;18.67;39.84;98823.78;4972236;28;114811;-79
2023/08/07 10:33:49;;;;;;;;;;;18.30;73.60;;;18.62;40.11;98812.88;4980186;28;125111;-82
2023/08/07 10:36:16;;;;;;;;;;;18.30;73.60;;;18.60;40.45;98804.88;4978314;28;124676;-82
2023/08/07 10:38:49;;;;;;;;;;;18.20;74.10;;;18.60;40.00;98823.66;4984584;28;114031;-78
2023/08/07 10:41:25;;;;;;;;;;;18.30;73.50;;;18.56;39.65;98809.56;4980663;28;114006;-78
2023/08/07 10:43:53;;;;;;;;;;;18.20;72.60;;;18.54;39.97;98815.53;4985264;28;124251;-80
2023/08/07 10:46:22;;;;;;;;;;;18.20;72.90;;;18.54;40.21;98821.13;4988939;28;123289;-81
2023/08/07 10:49:04;;;;;;;;;;;18.20;73.20;;;18.55;40.19;98811.56;4975602;28;114404;-80
2023/08/07 10:51:36;;;;;;;;;;;18.20;73.20;;;18.55;40.18;98816.34;4989768;28;113124;-79
2023/08/07 10:54:02;;;;;;;;;;;18.20;73.10;;;18.52;40.44;98812.28;4988270;28;123860;-78
2023/08/07 10:56:41;;;;;;;;;;;18.20;73.40;;;18.51;40.42;98809.84;4980334;28;123876;-78
2023/08/07 10:59:12;;;;;;;;;;;18.20;73.20;;;18.50;40.76;98814.63;4987095;28;114365;-78
2023/08/07 11:01:38;;;;;;;;;;;18.20;73.70;;;18.54;40.68;98821.13;4974576;28;114206;-79
2023/08/07 11:04:12;;;;;;;;;;;18.20;73.90;;;18.58;40.46;98818.41;4987881;28;123850;-78
2023/08/07 11:06:49;;;;;;;;;;;18.30;73.60;;;18.64;40.28;98830.13;4977370;28;123866;-78
2023/08/07 11:09:16;;;;;;;;;;;18.30;73.50;;;18.66;40.25;98824.97;4983451;28;113710;-77
2023/08/07 11:11:50;;;;;;;;;;;18.30;73.10;;;18.69;40.05;98821.44;4977777;28;113663;-78
2023/08/07 11:14:17;;;;;;;;;;;18.30;72.80;;;18.70;40.18;98823.09;4963809;28;123208;-77
2023/08/07 11:16:50;;;;;;;;;;;18.30;72.90;;;18.70;40.34;98817.50;4969050;28;124072;-79
2023/08/07 11:19:18;;;;;;;;;;;18.40;73.20;;;18.70;40.62;98834.28;4976098;28;115566;-78